sensor_id;sensor_type;location;lat;lon;timestamp;P1;durP1;ratioP1;P2;durP2;ratioP2
33794;SDS011;51430;52.242;21.118;2023-07-08T00:00:45;9.90;;;5.70;;
33794;SDS011;51430;52.242;21.118;2023-07-08T00:03:36;8.30;;;5.70;;
33794;SDS011;51430;52.242;21.118;2023-07-08T00:06:04;9.80;;;5.80;;
33794;SDS011;51430;52.242;21.118;2023-07-08T00:08:32;10.50;;;5.70;;
33794;SDS011;51430;52.242;21.118;2023-07-08T00:10:59;11.10;;;6.10;;
33794;SDS011;51430;52.242;21.118;2023-07-08T00:13:28;9.60;;;5.60;;
33794;SDS011;51430;52.242;21.118;2023-07-08T00:15:55;7.00;;;5.20;;
33794;SDS011;51430;52.242;21.118;2023-07-08T00:18:23;8.80;;;5.70;;
33794;SDS011;51430;52.242;21.118;2023-07-08T00:20:51;7.70;;;5.80;;
33794;SDS011;51430;52.242;21.118;2023-07-08T00:23:19;8.60;;;5.80;;
33794;SDS011;51430;52.242;21.118;2023-07-08T00:25:49;7.90;;;6.00;;
33794;SDS011;51430;52.242;21.118;2023-07-08T00:28:19;8.70;;;6.10;;
33794;SDS011;51430;52.242;21.118;2023-07-08T00:30:48;8.10;;;5.90;;
33794;SDS011;51430;52.242;21.118;2023-07-08T00:33:16;7.30;;;5.70;;
33794;SDS011;51430;52.242;21.118;2023-07-08T00:35:45;9.40;;;6.30;;
33794;SDS011;51430;52.242;21.118;2023-07-08T00:43:55;8.20;;;6.00;;
33794;SDS011;51430;52.242;21.118;2023-07-08T00:51:35;6.40;;;5.80;;
33794;SDS011;51430;52.242;21.118;2023-07-08T00:54:13;8.50;;;6.00;;
33794;SDS011;51430;52.242;21.118;2023-07-08T00:56:51;9.10;;;5.60;;
33794;SDS011;51430;52.242;21.118;2023-07-08T00:59:28;8.20;;;6.00;;
33794;SDS011;51430;52.242;21.118;2023-07-08T01:02:01;7.00;;;5.80;;
33794;SDS011;51430;52.242;21.118;2023-07-08T01:04:49;7.20;;;5.70;;
33794;SDS011;51430;52.242;21.118;2023-07-08T01:07:21;7.60;;;5.90;;
33794;SDS011;51430;52.242;21.118;2023-07-08T01:09:55;6.40;;;5.70;;
33794;SDS011;51430;52.242;21.118;2023-07-08T01:12:33;8.90;;;5.90;;
33794;SDS011;51430;52.242;21.118;2023-07-08T01:15:05;8.60;;;6.10;;
33794;SDS011;51430;52.242;21.118;2023-07-08T01:17:35;6.40;;;5.80;;
33794;SDS011;51430;52.242;21.118;2023-07-08T01:20:04;6.90;;;6.00;;
33794;SDS011;51430;52.242;21.118;2023-07-08T01:22:41;7.00;;;5.70;;
33794;SDS011;51430;52.242;21.118;2023-07-08T01:25:10;7.60;;;6.00;;
33794;SDS011;51430;52.242;21.118;2023-07-08T01:27:40;6.20;;;5.50;;
33794;SDS011;51430;52.242;21.118;2023-07-08T01:30:11;7.70;;;6.10;;
33794;SDS011;51430;52.242;21.118;2023-07-08T01:32:43;7.00;;;6.20;;
33794;SDS011;51430;52.242;21.118;2023-07-08T01:35:14;7.80;;;5.80;;
33794;SDS011;51430;52.242;21.118;2023-07-08T01:37:44;8.00;;;5.90;;
33794;SDS011;51430;52.242;21.118;2023-07-08T01:40:23;7.10;;;6.10;;
33794;SDS011;51430;52.242;21.118;2023-07-08T01:42:55;7.40;;;6.20;;
33794;SDS011;51430;52.242;21.118;2023-07-08T01:45:25;6.40;;;5.70;;
33794;SDS011;51430;52.242;21.118;2023-07-08T01:48:09;7.30;;;6.00;;
33794;SDS011;51430;52.242;21.118;2023-07-08T01:53:33;7.90;;;5.90;;
33794;SDS011;51430;52.242;21.118;2023-07-08T01:56:03;7.50;;;6.00;;
33794;SDS011;51430;52.242;21.118;2023-07-08T01:58:32;7.00;;;6.00;;
33794;SDS011;51430;52.242;21.118;2023-07-08T02:01:01;6.70;;;6.00;;
33794;SDS011;51430;52.242;21.118;2023-07-08T02:03:29;8.50;;;6.00;;
33794;SDS011;51430;52.242;21.118;2023-07-08T02:05:58;7.60;;;6.50;;
33794;SDS011;51430;52.242;21.118;2023-07-08T02:08:26;7.70;;;6.80;;
33794;SDS011;51430;52.242;21.118;2023-07-08T02:10:57;7.70;;;6.40;;
33794;SDS011;51430;52.242;21.118;2023-07-08T02:13:26;8.50;;;6.70;;
33794;SDS011;51430;52.242;21.118;2023-07-08T02:15:54;8.50;;;6.80;;
33794;SDS011;51430;52.242;21.118;2023-07-08T02:18:22;7.90;;;7.20;;
33794;SDS011;51430;52.242;21.118;2023-07-08T02:20:52;8.10;;;6.80;;
33794;SDS011;51430;52.242;21.118;2023-07-08T02:23:20;8.10;;;6.70;;
33794;SDS011;51430;52.242;21.118;2023-07-08T02:25:51;7.60;;;6.80;;
33794;SDS011;51430;52.242;21.118;2023-07-08T02:28:20;9.30;;;6.90;;
33794;SDS011;51430;52.242;21.118;2023-07-08T02:30:48;9.60;;;6.90;;
33794;SDS011;51430;52.242;21.118;2023-07-08T02:33:16;8.40;;;6.70;;
33794;SDS011;51430;52.242;21.118;2023-07-08T02:35:45;9.00;;;6.70;;
33794;SDS011;51430;52.242;21.118;2023-07-08T02:38:13;8.30;;;6.90;;
33794;SDS011;51430;52.242;21.118;2023-07-08T02:40:41;9.60;;;6.90;;
33794;SDS011;51430;52.242;21.118;2023-07-08T02:43:08;9.00;;;6.80;;
33794;SDS011;51430;52.242;21.118;2023-07-08T02:45:36;9.00;;;6.60;;
33794;SDS011;51430;52.242;21.118;2023-07-08T02:48:04;9.00;;;6.60;;
33794;SDS011;51430;52.242;21.118;2023-07-08T02:50:32;9.10;;;6.80;;
33794;SDS011;51430;52.242;21.118;2023-07-08T02:53:00;9.30;;;7.10;;
33794;SDS011;51430;52.242;21.118;2023-07-08T02:55:28;9.70;;;7.10;;
33794;SDS011;51430;52.242;21.118;2023-07-08T02:57:56;11.30;;;7.40;;
33794;SDS011;51430;52.242;21.118;2023-07-08T03:00:23;10.00;;;7.50;;
33794;SDS011;51430;52.242;21.118;2023-07-08T03:02:51;9.60;;;7.80;;
33794;SDS011;51430;52.242;21.118;2023-07-08T03:05:19;9.50;;;8.10;;
33794;SDS011;51430;52.242;21.118;2023-07-08T03:07:47;9.20;;;7.70;;
33794;SDS011;51430;52.242;21.118;2023-07-08T03:10:15;8.60;;;7.70;;
33794;SDS011;51430;52.242;21.118;2023-07-08T03:12:43;10.30;;;8.10;;
33794;SDS011;51430;52.242;21.118;2023-07-08T03:15:11;10.00;;;8.20;;
33794;SDS011;51430;52.242;21.118;2023-07-08T03:17:38;9.20;;;8.20;;
33794;SDS011;51430;52.242;21.118;2023-07-08T03:20:09;10.60;;;8.80;;
33794;SDS011;51430;52.242;21.118;2023-07-08T03:22:38;10.50;;;8.60;;
33794;SDS011;51430;52.242;21.118;2023-07-08T03:25:06;11.30;;;9.10;;
33794;SDS011;51430;52.242;21.118;2023-07-08T03:27:34;10.60;;;9.10;;
33794;SDS011;51430;52.242;21.118;2023-07-08T03:30:02;9.80;;;8.90;;
33794;SDS011;51430;52.242;21.118;2023-07-08T03:32:31;9.60;;;8.60;;
33794;SDS011;51430;52.242;21.118;2023-07-08T03:34:59;10.50;;;8.60;;
33794;SDS011;51430;52.242;21.118;2023-07-08T03:37:29;10.60;;;8.70;;
33794;SDS011;51430;52.242;21.118;2023-07-08T03:39:57;10.60;;;8.70;;
33794;SDS011;51430;52.242;21.118;2023-07-08T03:42:25;9.60;;;8.40;;
33794;SDS011;51430;52.242;21.118;2023-07-08T03:44:53;9.80;;;7.80;;
33794;SDS011;51430;52.242;21.118;2023-07-08T03:47:20;10.00;;;7.70;;
33794;SDS011;51430;52.242;21.118;2023-07-08T03:49:48;9.70;;;7.70;;
33794;SDS011;51430;52.242;21.118;2023-07-08T03:52:16;9.00;;;7.90;;
33794;SDS011;51430;52.242;21.118;2023-07-08T03:54:44;9.50;;;7.40;;
33794;SDS011;51430;52.242;21.118;2023-07-08T03:57:12;8.90;;;7.50;;
33794;SDS011;51430;52.242;21.118;2023-07-08T03:59:40;10.50;;;7.10;;
33794;SDS011;51430;52.242;21.118;2023-07-08T04:02:09;8.40;;;7.30;;
33794;SDS011;51430;52.242;21.118;2023-07-08T04:04:38;8.80;;;7.20;;
33794;SDS011;51430;52.242;21.118;2023-07-08T04:07:06;7.50;;;6.70;;
33794;SDS011;51430;52.242;21.118;2023-07-08T04:09:34;7.80;;;7.00;;
33794;SDS011;51430;52.242;21.118;2023-07-08T04:12:01;9.00;;;7.50;;
33794;SDS011;51430;52.242;21.118;2023-07-08T04:14:29;7.90;;;7.00;;
33794;SDS011;51430;52.242;21.118;2023-07-08T04:16:58;7.60;;;6.90;;
33794;SDS011;51430;52.242;21.118;2023-07-08T04:19:27;8.60;;;7.00;;
33794;SDS011;51430;52.242;21.118;2023-07-08T04:21:56;7.40;;;6.60;;
33794;SDS011;51430;52.242;21.118;2023-07-08T04:24:24;8.70;;;6.70;;
33794;SDS011;51430;52.242;21.118;2023-07-08T04:26:52;10.90;;;6.80;;
33794;SDS011;51430;52.242;21.118;2023-07-08T04:29:21;10.10;;;6.40;;
33794;SDS011;51430;52.242;21.118;2023-07-08T04:31:50;7.70;;;6.10;;
33794;SDS011;51430;52.242;21.118;2023-07-08T04:34:18;11.80;;;7.00;;
33794;SDS011;51430;52.242;21.118;2023-07-08T04:36:47;6.70;;;5.90;;
33794;SDS011;51430;52.242;21.118;2023-07-08T04:39:15;8.10;;;5.80;;
33794;SDS011;51430;52.242;21.118;2023-07-08T04:41:42;8.70;;;6.00;;
33794;SDS011;51430;52.242;21.118;2023-07-08T04:44:12;6.60;;;5.60;;
33794;SDS011;51430;52.242;21.118;2023-07-08T04:46:51;9.10;;;5.70;;
33794;SDS011;51430;52.242;21.118;2023-07-08T04:49:23;6.20;;;5.30;;
